Time;durP1;ratioP1;P1;durP2;ratioP2;P2;SDS_P1;SDS_P2;PMS_P1;PMS_P2;Temp;Humidity;BMP_temperature;BMP_pressure;BME280_temperature;BME280_humidity;BME280_pressure;Samples;Min_cycle;Max_cycle;Signal;HPM_P1;HPM_P2
2021/12/27 00:02:19;;;;;;;20.43;12.87;;;-1.20;99.90;;;;;;4998168;28;20409;-81
2021/12/27 00:04:44;;;;;;;20.73;13.00;;;-1.20;99.90;;;;;;4985653;28;20480;-80
2021/12/27 00:07:10;;;;;;;21.07;12.90;;;-1.20;99.90;;;;;;4998426;28;20045;-80
2021/12/27 00:09:36;;;;;;;21.57;12.37;;;-1.20;99.90;;;;;;4994033;28;20065;-81
2021/12/27 00:12:03;;;;;;;20.17;12.13;;;-1.30;99.90;;;;;;5002947;28;20038;-81
2021/12/27 00:14:28;;;;;;;21.03;12.80;;;-1.30;99.90;;;;;;4998862;28;20046;-81
2021/12/27 00:16:54;;;;;;;20.87;12.37;;;-1.20;99.90;;;;;;5002504;28;20056;-81
2021/12/27 00:19:19;;;;;;;19.87;12.17;;;-1.20;99.90;;;;;;4997211;28;20042;-80
2021/12/27 00:21:45;;;;;;;19.77;12.67;;;-1.20;99.90;;;;;;4988501;28;20088;-80
2021/12/27 00:24:10;;;;;;;20.13;12.33;;;-1.30;99.90;;;;;;4996983;28;20037;-80
2021/12/27 00:26:36;;;;;;;24.00;13.40;;;-1.30;99.90;;;;;;5008050;28;20170;-80
2021/12/27 00:29:01;;;;;;;19.83;12.40;;;-1.30;99.90;;;;;;5001323;28;20487;-81
2021/12/27 00:31:27;;;;;;;19.40;12.47;;;-1.30;99.90;;;;;;5004725;28;20053;-80
2021/12/27 00:33:52;;;;;;;20.93;12.60;;;-1.30;99.90;;;;;;4992605;28;20041;-81
2021/12/27 00:36:18;;;;;;;21.57;13.13;;;-1.30;99.90;;;;;;5009756;28;20041;-80
2021/12/27 00:38:44;;;;;;;25.70;13.77;;;-1.30;99.90;;;;;;4998452;28;20045;-81
2021/12/27 00:41:09;;;;;;;19.90;12.57;;;-1.40;99.90;;;;;;4999920;28;20039;-81
2021/12/27 00:43:35;;;;;;;20.60;13.13;;;-1.40;99.90;;;;;;5001778;28;20116;-80
2021/12/27 00:46:00;;;;;;;23.03;13.30;;;-1.40;99.90;;;;;;5000795;28;20034;-80
2021/12/27 00:48:26;;;;;;;22.80;13.20;;;-1.40;99.90;;;;;;4993701;28;20045;-81
2021/12/27 00:50:51;;;;;;;22.70;13.37;;;-1.40;99.90;;;;;;5003178;28;20172;-80
2021/12/27 00:53:17;;;;;;;20.93;13.30;;;-1.40;99.90;;;;;;5001688;28;20479;-80
2021/12/27 00:55:43;;;;;;;22.43;12.53;;;-1.40;99.90;;;;;;5003226;28;20034;-80
2021/12/27 00:58:08;;;;;;;21.97;13.30;;;-1.40;99.90;;;;;;4997204;28;20041;-80
2021/12/27 01:00:34;;;;;;;22.97;13.20;;;-1.40;99.90;;;;;;5000037;28;20049;-80
2021/12/27 01:03:00;;;;;;;20.53;12.90;;;-1.40;99.90;;;;;;4999011;28;20134;-82
2021/12/27 01:05:26;;;;;;;21.20;13.03;;;-1.40;99.90;;;;;;5001861;28;20042;-81
2021/12/27 01:07:53;;;;;;;23.33;13.07;;;-1.50;99.90;;;;;;4989094;28;20034;-81
2021/12/27 01:10:40;;;;;;;20.67;13.10;;;-1.50;99.90;;;;;;4981788;28;20431;-81
2021/12/27 01:18:12;;;;;;;21.07;12.80;;;-1.50;99.90;;;;;;5007769;28;20041;-81
2021/12/27 01:20:38;;;;;;;22.47;13.43;;;-1.50;99.90;;;;;;4991734;28;20062;-81
2021/12/27 01:23:04;;;;;;;20.77;13.23;;;-1.50;99.90;;;;;;5001112;28;20045;-80
2021/12/27 01:25:30;;;;;;;21.17;13.13;;;-1.50;99.90;;;;;;4984674;28;20084;-80
2021/12/27 01:27:55;;;;;;;22.90;13.00;;;-1.50;99.90;;;;;;4998568;28;20412;-81
2021/12/27 01:30:22;;;;;;;23.67;13.13;;;-1.50;99.90;;;;;;4997149;28;20037;-80
2021/12/27 01:32:53;;;;;;;20.13;12.07;;;-1.50;99.90;;;;;;5000425;28;20040;-81
2021/12/27 01:35:19;;;;;;;20.50;12.40;;;-1.50;99.90;;;;;;5005988;28;20065;-80
2021/12/27 01:37:46;;;;;;;21.33;12.90;;;-1.50;99.90;;;;;;5000146;28;20554;-81
2021/12/27 01:40:13;;;;;;;21.47;13.07;;;-1.50;99.90;;;;;;4979995;28;20033;-81
2021/12/27 01:43:20;;;;;;;20.67;12.80;;;-1.50;99.90;;;;;;5013914;28;20042;-81
2021/12/27 01:45:48;;;;;;;21.30;13.07;;;-1.50;99.90;;;;;;5002376;28;20068;-81
2021/12/27 01:48:17;;;;;;;21.33;13.33;;;-1.30;99.90;;;;;;4981840;28;20050;-81
2021/12/27 01:50:45;;;;;;;21.47;12.23;;;-1.50;99.90;;;;;;5007308;28;20096;-82
2021/12/27 01:53:12;;;;;;;22.53;13.57;;;-1.50;99.90;;;;;;5011209;28;20038;-81
2021/12/27 01:55:38;;;;;;;22.77;13.47;;;-1.50;99.90;;;;;;4995955;28;20038;-81
2021/12/27 01:58:04;;;;;;;21.53;13.73;;;-1.50;99.90;;;;;;4991410;28;20129;-81
2021/12/27 02:00:31;;;;;;;20.97;12.93;;;-1.50;99.90;;;;;;4986292;28;20097;-80
2021/12/27 02:02:56;;;;;;;24.83;14.00;;;-1.50;99.90;;;;;;5002439;28;20562;-81
2021/12/27 02:05:22;;;;;;;22.00;13.47;;;-1.50;99.90;;;;;;5003431;28;20042;-81
2021/12/27 02:07:48;;;;;;;24.00;14.20;;;-1.20;99.90;;;;;;4998155;28;20459;-80
2021/12/27 02:10:14;;;;;;;21.60;14.30;;;-1.40;99.90;;;;;;5004953;28;20435;-81
2021/12/27 02:12:41;;;;;;;22.43;13.23;;;-1.40;99.90;;;;;;5010932;28;20113;-81
2021/12/27 02:15:09;;;;;;;19.73;14.30;;;-1.40;99.90;;;;;;5011009;28;20042;-80
2021/12/27 02:17:38;;;;;;;23.23;14.13;;;-1.50;99.90;;;;;;4992744;28;20060;-81
2021/12/27 02:20:06;;;;;;;20.97;13.10;;;-1.50;99.90;;;;;;5003648;28;20074;-81
2021/12/27 02:22:35;;;;;;;23.17;13.13;;;-1.50;99.90;;;;;;5001351;28;20042;-80
2021/12/27 02:25:04;;;;;;;19.50;12.93;;;-1.50;99.90;;;;;;4988456;28;20041;-80
2021/12/27 02:27:29;;;;;;;22.53;13.53;;;-1.40;99.90;;;;;;5000435;28;20039;-80
2021/12/27 02:29:55;;;;;;;23.20;13.60;;;-1.40;99.90;;;;;;5004193;28;20041;-80
2021/12/27 02:32:20;;;;;;;22.20;14.00;;;-1.40;99.90;;;;;;5002832;28;20100;-80
2021/12/27 02:34:46;;;;;;;24.07;14.23;;;-1.40;99.90;;;;;;5010367;28;20053;-80
2021/12/27 02:37:12;;;;;;;22.97;14.47;;;-1.40;99.90;;;;;;5001154;28;20045;-80
2021/12/27 02:39:37;;;;;;;22.67;13.73;;;-1.40;99.90;;;;;;5011150;28;20042;-80
2021/12/27 02:42:03;;;;;;;23.73;13.87;;;-1.40;99.90;;;;;;5006904;28;20080;-81
2021/12/27 02:44:29;;;;;;;22.57;13.83;;;-1.40;99.90;;;;;;4993430;28;20048;-81
2021/12/27 02:46:55;;;;;;;22.67;13.93;;;-1.40;99.90;;;;;;5007916;28;20046;-81
2021/12/27 02:49:20;;;;;;;22.80;13.53;;;-1.40;99.90;;;;;;5012263;28;20046;-80
2021/12/27 02:51:46;;;;;;;24.83;14.57;;;-1.30;99.90;;;;;;4992565;28;20046;-81
2021/12/27 02:54:11;;;;;;;24.53;14.27;;;-1.30;99.90;;;;;;5000359;28;20033;-80
2021/12/27 02:56:37;;;;;;;21.43;13.27;;;-1.30;99.90;;;;;;5002135;28;20038;-81
2021/12/27 02:59:02;;;;;;;22.10;13.83;;;-1.30;99.90;;;;;;5005362;28;20087;-80
2021/12/27 03:01:28;;;;;;;24.07;14.47;;;-1.30;99.90;;;;;;5011167;28;20101;-81
2021/12/27 03:03:55;;;;;;;22.47;13.97;;;-1.30;99.90;;;;;;4997485;28;20487;-81
2021/12/27 03:06:21;;;;;;;23.60;14.50;;;-1.30;99.90;;;;;;4992594;28;20038;-81
2021/12/27 03:08:48;;;;;;;23.27;14.23;;;-1.30;99.90;;;;;;5003011;28;20046;-80
2021/12/27 03:11:14;;;;;;;23.97;14.73;;;-1.30;99.90;;;;;;5011083;28;20479;-81
2021/12/27 03:13:46;;;;;;;22.53;14.37;;;-1.30;99.90;;;;;;5004320;28;20073;-80
2021/12/27 03:16:14;;;;;;;24.07;15.17;;;-1.30;99.90;;;;;;5011583;28;20491;-81
2021/12/27 03:18:44;;;;;;;24.13;15.03;;;-1.30;99.90;;;;;;5008293;28;20474;-80
2021/12/27 03:21:10;;;;;;;22.10;14.03;;;-1.30;99.90;;;;;;5002753;28;20057;-81
2021/12/27 03:23:39;;;;;;;24.57;15.20;;;-1.20;99.90;;;;;;4989970;28;20105;-80
2021/12/27 03:26:05;;;;;;;24.93;15.73;;;-1.20;99.90;;;;;;4996720;28;20435;-81
2021/12/27 03:28:32;;;;;;;24.30;15.40;;;-1.20;99.90;;;;;;4997112;28;20034;-81
2021/12/27 03:30:59;;;;;;;24.00;14.60;;;-1.20;99.90;;;;;;5006559;28;20046;-81
2021/12/27 03:33:25;;;;;;;26.53;14.80;;;-1.20;99.90;;;;;;5006287;28;20030;-81
2021/12/27 03:36:00;;;;;;;27.10;16.27;;;-1.20;99.90;;;;;;4995595;28;20550;-80
2021/12/27 03:38:28;;;;;;;21.03;13.90;;;-1.20;99.90;;;;;;4986312;28;20074;-81
2021/12/27 03:40:53;;;;;;;24.00;15.30;;;-1.20;99.90;;;;;;5002039;28;20500;-81
2021/12/27 03:43:19;;;;;;;23.83;14.67;;;-1.20;99.90;;;;;;5005590;28;20040;-81
2021/12/27 03:45:44;;;;;;;25.03;15.20;;;-1.20;99.90;;;;;;5006255;28;20528;-81
2021/12/27 03:48:11;;;;;;;23.77;15.27;;;-1.20;99.90;;;;;;5000587;28;20172;-81
2021/12/27 03:50:38;;;;;;;22.23;14.43;;;-1.20;99.90;;;;;;4989741;28;20045;-81
2021/12/27 03:53:05;;;;;;;27.03;15.07;;;-1.10;99.90;;;;;;4994981;28;20042;-81
2021/12/27 03:55:31;;;;;;;24.90;15.07;;;-1.10;99.90;;;;;;4996035;28;20038;-81
2021/12/27 03:58:06;;;;;;;24.07;15.23;;;-1.10;99.90;;;;;;4997276;28;20100;-81
2021/12/27 04:00:47;;;;;;;26.17;15.83;;;-1.10;99.90;;;;;;5002565;28;20049;-81
2021/12/27 04:03:13;;;;;;;28.10;16.23;;;-1.10;99.90;;;;;;5005552;28;20448;-81
2021/12/27 04:05:39;;;;;;;24.97;15.50;;;-1.10;99.90;;;;;;4994522;28;20034;-81
2021/12/27 04:08:09;;;;;;;25.67;15.73;;;-1.10;99.90;;;;;;4996503;28;20068;-81
2021/12/27 04:10:39;;;;;;;28.13;15.00;;;-1.10;99.90;;;;;;4991849;28;20034;-80
2021/12/27 04:13:07;;;;;;;27.23;16.33;;;-1.10;99.90;;;;;;5002230;28;20057;-81
2021/12/27 04:15:33;;;;;;;23.80;14.67;;;-1.00;99.90;;;;;;4993369;28;20042;-82
2021/12/27 04:17:58;;;;;;;25.90;16.30;;;-1.10;99.90;;;;;;4989435;28;20041;-79
2021/12/27 04:20:25;;;;;;;25.60;15.50;;;-1.00;99.90;;;;;;5005201;28;20058;-80
2021/12/27 04:22:50;;;;;;;27.03;15.90;;;-1.00;99.90;;;;;;4992182;28;20035;-81
2021/12/27 04:25:17;;;;;;;28.30;16.13;;;-1.00;99.90;;;;;;5008447;28;20141;-81
2021/12/27 04:27:43;;;;;;;24.73;15.63;;;-1.00;99.90;;;;;;5007672;28;20049;-81
2021/12/27 04:30:09;;;;;;;27.63;15.90;;;-1.00;99.90;;;;;;5009446;28;20030;-80
2021/12/27 04:32:35;;;;;;;26.13;15.73;;;-1.00;99.90;;;;;;5007496;28;20403;-81
2021/12/27 04:35:01;;;;;;;23.67;15.57;;;-1.00;99.90;;;;;;5006107;28;20037;-81
2021/12/27 04:37:29;;;;;;;26.43;16.27;;;-1.00;99.90;;;;;;5006012;28;20042;-80
2021/12/27 04:39:55;;;;;;;27.77;16.40;;;-1.00;99.90;;;;;;5007472;28;20045;-81
2021/12/27 04:42:21;;;;;;;23.70;15.57;;;-1.00;99.90;;;;;;5002725;28;20057;-80
2021/12/27 04:44:47;;;;;;;29.30;16.73;;;-1.00;99.90;;;;;;5000448;28;20444;-81
2021/12/27 04:47:16;;;;;;;26.97;16.30;;;-1.00;99.90;;;;;;5007484;28;20045;-81
2021/12/27 04:49:42;;;;;;;28.53;16.40;;;-1.00;99.90;;;;;;4999838;28;20038;-81
2021/12/27 04:52:09;;;;;;;25.17;15.33;;;-1.00;99.90;;;;;;5000754;28;20049;-81
2021/12/27 04:54:35;;;;;;;26.20;16.27;;;-1.00;99.90;;;;;;5006430;28;20038;-82
2021/12/27 04:57:01;;;;;;;26.17;16.57;;;-1.00;99.90;;;;;;4985869;28;20038;-80
2021/12/27 04:59:27;;;;;;;25.87;15.80;;;-1.00;99.90;;;;;;5000115;28;20120;-81
2021/12/27 05:01:52;;;;;;;27.07;16.27;;;-0.90;99.90;;;;;;5005635;28;20038;-81
2021/12/27 05:04:18;;;;;;;27.83;16.67;;;-0.90;99.90;;;;;;5008884;28;20417;-82
2021/12/27 05:06:43;;;;;;;26.57;16.07;;;-0.90;99.90;;;;;;5003322;28;20092;-80
2021/12/27 05:09:09;;;;;;;24.83;15.63;;;-0.90;99.90;;;;;;4993018;28;20030;-81
2021/12/27 05:11:35;;;;;;;26.07;16.47;;;-0.90;99.90;;;;;;4995821;28;20046;-81
2021/12/27 05:14:00;;;;;;;30.80;16.93;;;-0.90;99.90;;;;;;5004757;28;20038;-81
2021/12/27 05:16:26;;;;;;;27.83;16.70;;;-0.90;99.90;;;;;;5012299;28;20100;-82
2021/12/27 05:18:51;;;;;;;25.27;16.53;;;-0.80;99.90;;;;;;4998388;28;20518;-81
2021/12/27 05:21:17;;;;;;;24.90;15.47;;;-0.90;99.90;;;;;;5003526;28;20152;-81
2021/12/27 05:23:43;;;;;;;26.70;16.90;;;-0.80;99.90;;;;;;5006301;28;20495;-82
2021/12/27 05:26:08;;;;;;;28.63;17.43;;;-0.80;99.90;;;;;;5010831;28;20040;-81
2021/12/27 05:28:34;;;;;;;24.43;15.73;;;-0.80;99.90;;;;;;5007685;28;20055;-80
2021/12/27 05:30:59;;;;;;;29.23;17.37;;;-0.80;99.90;;;;;;5002942;28;20052;-81
2021/12/27 05:33:25;;;;;;;29.57;17.20;;;-0.80;99.90;;;;;;5002540;28;20046;-82
2021/12/27 05:35:51;;;;;;;29.90;17.13;;;-0.80;99.90;;;;;;5003771;28;20551;-81
2021/12/27 05:38:16;;;;;;;27.50;16.50;;;-0.80;99.90;;;;;;5006585;28;20041;-81
2021/12/27 05:40:42;;;;;;;28.70;17.30;;;-0.80;99.90;;;;;;5011331;28;20038;-81
2021/12/27 05:43:08;;;;;;;26.00;16.77;;;-0.80;99.90;;;;;;5005607;28;20345;-81
2021/12/27 05:45:36;;;;;;;26.83;16.40;;;-0.80;99.90;;;;;;4996525;28;20034;-81
2021/12/27 05:48:02;;;;;;;31.17;17.77;;;-0.80;99.90;;;;;;4994795;28;20516;-81
2021/12/27 05:50:28;;;;;;;27.90;17.83;;;-0.80;99.90;;;;;;5008385;28;20495;-81
2021/12/27 05:52:53;;;;;;;28.30;17.67;;;-0.80;99.90;;;;;;5009213;28;20038;-80
2021/12/27 05:55:20;;;;;;;31.37;17.57;;;-0.80;99.90;;;;;;4990526;28;20050;-82
2021/12/27 05:57:45;;;;;;;31.10;18.27;;;-0.80;99.90;;;;;;5001381;28;20077;-81
2021/12/27 06:00:12;;;;;;;33.37;17.33;;;-0.80;99.90;;;;;;5006334;28;20121;-81
2021/12/27 06:02:38;;;;;;;26.07;16.60;;;-0.80;99.90;;;;;;5002087;28;20050;-81
2021/12/27 06:05:04;;;;;;;33.83;18.57;;;-0.80;99.90;;;;;;5007250;28;20042;-80
2021/12/27 06:07:30;;;;;;;34.03;19.33;;;-0.80;99.90;;;;;;4994636;28;20045;-82
2021/12/27 06:09:56;;;;;;;35.70;19.63;;;-0.80;99.90;;;;;;4985556;28;20064;-81
2021/12/27 06:12:22;;;;;;;32.27;18.13;;;-0.80;99.90;;;;;;4990154;28;20049;-81
2021/12/27 06:14:48;;;;;;;34.70;18.77;;;-0.80;99.90;;;;;;5006413;28;20176;-82
2021/12/27 06:17:13;;;;;;;34.77;19.07;;;-0.80;99.90;;;;;;5002321;28;20539;-80
2021/12/27 06:19:39;;;;;;;32.90;18.87;;;-0.80;99.90;;;;;;5007180;28;20038;-82
2021/12/27 06:22:05;;;;;;;37.20;19.23;;;-0.80;99.90;;;;;;5010769;28;20053;-81
2021/12/27 06:24:31;;;;;;;37.17;19.97;;;-0.80;99.90;;;;;;4999832;28;20034;-81
2021/12/27 06:26:56;;;;;;;32.53;19.77;;;-0.70;99.90;;;;;;5007461;28;20039;-81
2021/12/27 06:29:22;;;;;;;33.63;18.37;;;-0.70;99.90;;;;;;4998639;28;20038;-81
2021/12/27 06:31:47;;;;;;;33.00;19.13;;;-0.70;99.90;;;;;;5009092;28;20104;-81
2021/12/27 06:34:14;;;;;;;31.40;18.67;;;-0.70;99.90;;;;;;5007224;28;20088;-81
2021/12/27 06:36:40;;;;;;;33.97;19.57;;;-0.70;99.90;;;;;;4999504;28;20053;-81
2021/12/27 06:39:08;;;;;;;34.13;18.70;;;-0.70;99.90;;;;;;4989488;28;20041;-80
2021/12/27 06:41:34;;;;;;;34.13;19.43;;;-0.70;99.90;;;;;;5008414;28;20046;-80
2021/12/27 06:44:00;;;;;;;31.80;18.63;;;-0.70;99.90;;;;;;5025351;28;20092;-81
2021/12/27 06:46:26;;;;;;;33.60;20.00;;;-0.70;99.90;;;;;;5010333;28;20037;-80
2021/12/27 06:48:52;;;;;;;33.47;19.23;;;-0.70;99.90;;;;;;5002539;28;20084;-81
2021/12/27 06:51:17;;;;;;;32.50;18.77;;;-0.70;99.90;;;;;;4988620;28;20511;-81
2021/12/27 06:53:43;;;;;;;34.53;19.10;;;-0.70;99.90;;;;;;4996271;28;20460;-81
2021/12/27 06:56:08;;;;;;;33.63;19.17;;;-0.70;99.90;;;;;;4997967;28;20093;-80
2021/12/27 06:58:34;;;;;;;36.53;19.27;;;-0.70;99.90;;;;;;4996106;28;20404;-80
2021/12/27 07:01:00;;;;;;;36.03;19.87;;;-0.70;99.90;;;;;;5000466;28;20111;-80
2021/12/27 07:03:26;;;;;;;36.27;19.30;;;-0.70;99.90;;;;;;5000255;28;20038;-80
2021/12/27 07:05:51;;;;;;;35.27;20.87;;;-0.70;99.90;;;;;;5008214;28;20038;-81
2021/12/27 07:08:18;;;;;;;38.43;19.50;;;-0.60;99.90;;;;;;4998126;28;20081;-81
2021/12/27 07:10:44;;;;;;;32.60;18.63;;;-0.70;99.90;;;;;;4995142;28;20069;-81
2021/12/27 07:13:10;;;;;;;34.30;19.00;;;-0.60;99.90;;;;;;4997135;28;20042;-81
2021/12/27 07:15:41;;;;;;;38.00;19.80;;;-0.70;99.90;;;;;;5006104;28;20408;-81
2021/12/27 07:18:20;;;;;;;36.90;20.53;;;-0.60;99.90;;;;;;5010792;28;20427;-81
2021/12/27 07:20:46;;;;;;;35.27;19.23;;;-0.60;99.90;;;;;;4998370;28;20042;-82
2021/12/27 07:23:11;;;;;;;34.23;19.23;;;-0.60;99.90;;;;;;5000751;28;20044;-82
2021/12/27 07:25:37;;;;;;;33.77;19.43;;;-0.60;99.90;;;;;;5011860;28;20706;-81
2021/12/27 07:28:03;;;;;;;33.17;20.30;;;-0.60;99.90;;;;;;4998659;28;20077;-82
2021/12/27 07:30:29;;;;;;;36.50;19.93;;;-0.60;99.90;;;;;;5001585;28;20117;-81
2021/12/27 07:32:55;;;;;;;35.10;19.93;;;-0.60;99.90;;;;;;5004861;28;20034;-81
2021/12/27 07:35:22;;;;;;;36.90;18.73;;;-0.60;99.90;;;;;;5010150;28;20109;-81
2021/12/27 07:37:47;;;;;;;36.47;19.20;;;-0.60;99.90;;;;;;5009466;28;20034;-81
2021/12/27 07:40:13;;;;;;;40.20;21.47;;;-0.60;99.90;;;;;;4998755;28;20049;-81
2021/12/27 07:42:39;;;;;;;41.53;22.00;;;-0.50;99.90;;;;;;4994428;28;20085;-82
2021/12/27 07:45:05;;;;;;;39.23;20.73;;;-0.50;99.90;;;;;;5008547;28;20116;-81
2021/12/27 07:47:31;;;;;;;38.10;20.23;;;-0.50;99.90;;;;;;4998793;28;20041;-81
2021/12/27 07:49:56;;;;;;;40.37;20.33;;;-0.50;99.90;;;;;;5009625;28;20118;-81
2021/12/27 07:52:22;;;;;;;43.13;21.90;;;-0.50;99.90;;;;;;5009779;28;20076;-82
2021/12/27 07:54:48;;;;;;;40.03;21.07;;;-0.50;99.90;;;;;;5006826;28;20045;-81
2021/12/27 07:57:15;;;;;;;41.60;21.20;;;-0.40;99.90;;;;;;5006488;28;20060;-81
2021/12/27 07:59:42;;;;;;;38.97;20.07;;;-0.50;99.90;;;;;;5007087;28;20040;-81
2021/12/27 08:02:10;;;;;;;42.27;22.37;;;-0.50;99.90;;;;;;5006201;28;20200;-82
2021/12/27 08:04:36;;;;;;;40.50;21.10;;;-0.50;99.90;;;;;;5008883;28;20041;-81
2021/12/27 08:07:02;;;;;;;46.17;22.33;;;-0.40;99.90;;;;;;4977554;28;20036;-81
2021/12/27 08:09:28;;;;;;;41.00;21.20;;;-0.40;99.90;;;;;;5007938;28;20116;-81
2021/12/27 08:11:53;;;;;;;46.50;23.33;;;-0.40;99.90;;;;;;5007359;28;20048;-81
2021/12/27 08:14:19;;;;;;;51.47;25.37;;;-0.40;99.90;;;;;;5004300;28;20467;-81
2021/12/27 08:16:45;;;;;;;53.37;27.20;;;-0.40;99.90;;;;;;5009698;28;20041;-81
2021/12/27 08:19:10;;;;;;;41.67;24.07;;;-0.40;99.90;;;;;;5010570;28;20463;-82
2021/12/27 08:21:37;;;;;;;44.20;21.90;;;-0.40;99.90;;;;;;5001278;28;20419;-80
2021/12/27 08:24:04;;;;;;;40.83;21.03;;;-0.40;99.90;;;;;;5003010;28;20030;-81
2021/12/27 08:26:30;;;;;;;42.60;21.40;;;-0.40;99.90;;;;;;5008165;28;20124;-82
2021/12/27 08:28:57;;;;;;;45.43;22.07;;;-0.40;99.90;;;;;;5013042;28;20073;-81
2021/12/27 08:31:23;;;;;;;43.73;22.60;;;-0.40;99.90;;;;;;5010805;28;20050;-80
2021/12/27 08:33:48;;;;;;;40.30;20.90;;;-0.40;99.90;;;;;;4983138;28;20042;-80
2021/12/27 08:36:14;;;;;;;45.43;21.90;;;-0.30;99.90;;;;;;4991744;28;20041;-81
2021/12/27 08:38:40;;;;;;;43.87;21.23;;;-0.30;99.90;;;;;;5009352;28;20050;-81
2021/12/27 08:41:06;;;;;;;45.63;21.73;;;-0.30;99.90;;;;;;5010335;28;20399;-82
2021/12/27 08:43:31;;;;;;;49.13;21.20;;;-0.30;99.90;;;;;;4986313;28;20184;-81
2021/12/27 08:45:59;;;;;;;53.40;22.10;;;-0.30;99.90;;;;;;5004267;28;20135;-80
2021/12/27 08:48:24;;;;;;;47.27;20.90;;;-0.30;99.90;;;;;;5009005;28;20052;-80
2021/12/27 08:50:50;;;;;;;42.40;21.40;;;-0.20;99.90;;;;;;4988510;28;20216;-80
2021/12/27 08:53:16;;;;;;;47.93;22.30;;;-0.20;99.90;;;;;;5005626;28;20041;-81
2021/12/27 08:55:42;;;;;;;50.23;22.20;;;-0.20;99.90;;;;;;4984456;28;20069;-80
2021/12/27 08:58:07;;;;;;;46.83;21.83;;;-0.20;99.90;;;;;;5010421;28;20065;-80
2021/12/27 09:00:33;;;;;;;55.13;23.53;;;-0.20;99.90;;;;;;5009208;28;20092;-80
2021/12/27 09:02:59;;;;;;;56.30;21.83;;;-0.20;99.90;;;;;;5013958;28;20034;-81
2021/12/27 09:05:25;;;;;;;49.23;22.53;;;-0.20;99.90;;;;;;5012771;28;20458;-80
2021/12/27 09:07:50;;;;;;;54.77;22.97;;;-0.10;99.90;;;;;;5015997;28;20041;-81
2021/12/27 09:10:16;;;;;;;53.60;21.93;;;-0.20;99.90;;;;;;5014961;28;20124;-81
2021/12/27 09:12:42;;;;;;;51.63;22.43;;;-0.10;99.90;;;;;;4986210;28;20491;-81
2021/12/27 09:15:09;;;;;;;54.27;22.73;;;-0.10;99.90;;;;;;5017027;28;20076;-81
2021/12/27 09:17:34;;;;;;;54.60;22.63;;;-0.10;99.90;;;;;;5016332;28;20061;-81
2021/12/27 09:20:00;;;;;;;51.97;22.40;;;-0.10;99.90;;;;;;5014868;28;20038;-82
2021/12/27 09:22:26;;;;;;;48.20;21.37;;;-0.10;99.90;;;;;;5007065;28;20045;-81
2021/12/27 09:24:51;;;;;;;48.40;21.50;;;-0.10;99.90;;;;;;5000584;28;20042;-82
2021/12/27 09:27:18;;;;;;;59.23;23.07;;;-0.10;99.90;;;;;;5016682;28;20102;-80
2021/12/27 09:29:44;;;;;;;53.80;23.30;;;-0.10;99.90;;;;;;5016168;28;20034;-82
2021/12/27 09:32:10;;;;;;;55.67;22.90;;;0.00;99.90;;;;;;5016387;28;20379;-82
2021/12/27 09:34:37;;;;;;;50.50;22.67;;;0.00;99.90;;;;;;4996004;28;20406;-83
2021/12/27 09:37:03;;;;;;;50.90;23.90;;;0.00;99.90;;;;;;5013262;28;20037;-83
2021/12/27 09:39:29;;;;;;;44.50;22.13;;;0.00;99.90;;;;;;4991574;28;20044;-83
2021/12/27 09:41:54;;;;;;;48.87;22.13;;;0.00;99.90;;;;;;4995592;28;20042;-83
2021/12/27 09:44:20;;;;;;;54.60;23.73;;;0.00;99.90;;;;;;4994266;28;20044;-83
2021/12/27 09:46:45;;;;;;;47.40;20.97;;;0.10;99.90;;;;;;5004310;28;20065;-83
2021/12/27 09:49:13;;;;;;;50.27;22.77;;;0.00;99.90;;;;;;4994775;28;20030;-82
2021/12/27 09:51:41;;;;;;;54.40;23.47;;;0.10;99.90;;;;;;4995811;28;20034;-82
2021/12/27 09:54:07;;;;;;;53.07;22.10;;;0.10;99.90;;;;;;5010477;28;20483;-82
2021/12/27 09:56:36;;;;;;;50.10;21.53;;;0.10;99.90;;;;;;4995251;28;20046;-81
2021/12/27 09:59:03;;;;;;;46.90;21.37;;;0.10;99.90;;;;;;5011181;28;20164;-81
2021/12/27 10:01:29;;;;;;;49.37;22.60;;;0.10;99.90;;;;;;5004298;28;20585;-81
2021/12/27 10:03:57;;;;;;;50.20;22.63;;;0.20;99.90;;;;;;4993255;28;20117;-81
2021/12/27 10:06:25;;;;;;;50.90;21.13;;;0.10;99.90;;;;;;5005743;28;20034;-81
2021/12/27 10:08:53;;;;;;;48.53;22.17;;;0.20;99.90;;;;;;5001851;28;20052;-81
2021/12/27 10:11:20;;;;;;;50.43;22.23;;;0.20;99.90;;;;;;5011145;28;20484;-81
2021/12/27 10:14:09;;;;;;;47.73;21.27;;;0.20;99.90;;;;;;4980688;28;20061;-80
2021/12/27 10:16:47;;;;;;;50.67;21.10;;;0.20;99.90;;;;;;4994050;28;20042;-81
2021/12/27 10:19:16;;;;;;;51.20;21.67;;;0.20;99.90;;;;;;4999087;28;20591;-81
2021/12/27 10:21:46;;;;;;;52.00;21.33;;;0.30;99.90;;;;;;4995784;28;20046;-81
2021/12/27 10:24:15;;;;;;;51.70;22.30;;;0.30;99.90;;;;;;5006007;28;20046;-80
2021/12/27 10:26:43;;;;;;;51.07;22.37;;;0.30;99.90;;;;;;4999637;28;20095;-81
2021/12/27 10:29:23;;;;;;;61.90;22.40;;;0.30;99.90;;;;;;5010462;28;20038;-81
2021/12/27 10:31:56;;;;;;;68.47;23.37;;;0.30;99.90;;;;;;5009867;28;20033;-81
2021/12/27 10:34:25;;;;;;;60.28;22.42;;;0.30;99.90;;;;;;4998434;28;20042;-81
2021/12/27 10:37:11;;;;;;;66.27;23.43;;;0.40;99.90;;;;;;5004872;28;20042;-80
2021/12/27 10:40:01;;;;;;;63.13;22.70;;;0.40;99.90;;;;;;5002087;28;20038;-80
2021/12/27 10:42:27;;;;;;;63.90;22.43;;;0.40;99.90;;;;;;4991520;28;20038;-81
2021/12/27 10:44:58;;;;;;;76.27;24.43;;;0.50;99.90;;;;;;5002355;28;20046;-80
2021/12/27 10:47:40;;;;;;;71.30;24.17;;;0.50;99.90;;;;;;5001320;28;20067;-80
2021/12/27 10:50:08;;;;;;;67.07;23.10;;;0.50;99.90;;;;;;4998135;28;20073;-81
2021/12/27 10:52:48;;;;;;;69.70;23.43;;;0.50;99.90;;;;;;5008256;28;20088;-80
2021/12/27 10:55:16;;;;;;;66.37;24.43;;;0.60;99.90;;;;;;5005717;28;20105;-80
2021/12/27 10:57:42;;;;;;;75.70;24.77;;;0.60;99.90;;;;;;5005304;28;20045;-80
2021/12/27 11:00:24;;;;;;;86.07;26.13;;;0.60;99.90;;;;;;5008441;28;20050;-79
2021/12/27 11:02:51;;;;;;;76.90;25.70;;;0.70;99.90;;;;;;5003125;28;20051;-80
2021/12/27 11:05:25;;;;;;;75.57;24.50;;;0.70;99.90;;;;;;4997769;28;20046;-79
2021/12/27 11:07:52;;;;;;;83.70;25.50;;;0.70;99.90;;;;;;4998494;28;20034;-80
2021/12/27 11:10:20;;;;;;;88.53;25.93;;;0.80;99.90;;;;;;4998493;28;20042;-80
2021/12/27 11:12:47;;;;;;;82.40;24.73;;;0.70;99.90;;;;;;5004367;28;20069;-80
2021/12/27 11:15:13;;;;;;;78.33;24.57;;;0.80;99.90;;;;;;5008089;28;20128;-80
2021/12/27 11:17:40;;;;;;;87.13;25.50;;;0.80;99.90;;;;;;5007145;28;20061;-80
2021/12/27 11:20:08;;;;;;;103.43;25.73;;;0.80;99.90;;;;;;4996006;28;20042;-80
2021/12/27 11:22:36;;;;;;;90.23;25.47;;;0.80;99.90;;;;;;5013940;28;20074;-79
2021/12/27 11:25:19;;;;;;;108.93;25.23;;;0.80;99.90;;;;;;4989280;28;20089;-80
2021/12/27 11:27:45;;;;;;;95.68;25.00;;;0.90;99.90;;;;;;5007930;28;20026;-80
2021/12/27 11:30:12;;;;;;;90.23;25.57;;;0.90;99.90;;;;;;5013319;28;20041;-80
2021/12/27 11:33:02;;;;;;;91.93;26.43;;;0.90;99.90;;;;;;5010951;28;20427;-80
2021/12/27 11:35:38;;;;;;;82.67;25.93;;;0.90;99.90;;;;;;5011676;28;20128;-80
2021/12/27 11:38:05;;;;;;;91.27;24.97;;;0.90;99.90;;;;;;5019507;28;20069;-79
2021/12/27 11:40:43;;;;;;;86.60;25.57;;;0.90;99.90;;;;;;5011659;28;20403;-80
2021/12/27 11:43:08;;;;;;;83.40;26.07;;;0.90;99.90;;;;;;5004004;28;20500;-79
2021/12/27 11:45:38;;;;;;;93.17;25.47;;;0.90;99.90;;;;;;4999988;28;20030;-80
2021/12/27 11:48:10;;;;;;;90.80;25.50;;;0.90;99.90;;;;;;4991044;28;20037;-80
2021/12/27 11:51:03;;;;;;;112.20;24.97;;;0.90;99.90;;;;;;5010921;28;20080;-79
2021/12/27 11:53:30;;;;;;;105.50;26.40;;;0.90;99.90;;;;;;4986947;28;20038;-80
2021/12/27 11:55:56;;;;;;;85.47;24.73;;;0.90;99.90;;;;;;5003681;28;20042;-80
2021/12/27 11:58:29;;;;;;;91.50;24.37;;;1.00;99.90;;;;;;5013055;28;20439;-80
2021/12/27 12:00:54;;;;;;;104.65;25.63;;;1.00;99.90;;;;;;4997333;28;20081;-80
2021/12/27 12:03:37;;;;;;;114.13;27.43;;;0.90;99.90;;;;;;5009968;28;20037;-79
2021/12/27 12:06:03;;;;;;;101.17;25.43;;;1.00;99.90;;;;;;4994575;28;20092;-78
2021/12/27 12:08:38;;;;;;;117.67;25.93;;;1.00;99.90;;;;;;4978005;28;20045;-79
2021/12/27 12:11:07;;;;;;;90.67;25.33;;;1.00;99.90;;;;;;5003752;28;20503;-78
2021/12/27 12:13:44;;;;;;;99.30;25.70;;;1.10;99.90;;;;;;4998602;28;20277;-79
2021/12/27 12:16:11;;;;;;;98.83;25.70;;;1.10;99.90;;;;;;4981074;28;20133;-78
2021/12/27 12:18:41;;;;;;;93.53;25.63;;;1.10;99.90;;;;;;5003296;28;20061;-77
2021/12/27 12:21:27;;;;;;;105.13;25.73;;;1.20;99.90;;;;;;5003801;28;20049;-78
2021/12/27 12:24:20;;;;;;;115.37;25.97;;;1.20;99.90;;;;;;5008196;28;20042;-78
2021/12/27 12:26:50;;;;;;;132.50;26.23;;;1.20;99.90;;;;;;5007177;28;20054;-78
2021/12/27 12:29:16;;;;;;;119.53;27.00;;;1.20;99.90;;;;;;4993386;28;20082;-77
2021/12/27 12:31:41;;;;;;;115.47;27.70;;;1.20;99.90;;;;;;5005980;28;20523;-77
2021/12/27 12:34:15;;;;;;;140.03;27.67;;;1.30;99.90;;;;;;5007226;28;20042;-77
2021/12/27 12:36:56;;;;;;;102.23;26.43;;;1.30;99.90;;;;;;5009592;28;20053;-78